createdAt,value
2018-02-10T00:00:39.378Z,105.78
2018-02-10T00:03:07.755Z,111.60
2018-02-10T00:05:35.522Z,105.15
2018-02-10T00:08:03.591Z,106.07
2018-02-10T00:10:31.765Z,107.72
2018-02-10T00:12:59.735Z,110.88
2018-02-10T00:15:27.497Z,107.82
2018-02-10T00:17:55.777Z,108.63
2018-02-10T00:20:23.743Z,105.53
2018-02-10T00:22:51.612Z,110.15
2018-02-10T00:25:19.555Z,106.30
2018-02-10T00:27:47.545Z,106.97
2018-02-10T00:30:16.130Z,106.15
2018-02-10T00:32:44.284Z,104.43
2018-02-10T00:35:12.378Z,106.80
2018-02-10T00:37:40.653Z,107.93
2018-02-10T00:40:08.945Z,105.97
2018-02-10T00:42:37.000Z,107.00
2018-02-10T00:45:05.381Z,115.85
2018-02-10T00:47:33.860Z,104.55
2018-02-10T00:50:02.035Z,106.10
2018-02-10T00:52:29.900Z,102.45
2018-02-10T00:54:58.179Z,107.20
2018-02-10T00:57:26.145Z,104.43
2018-02-10T00:59:54.115Z,106.70
2018-02-10T01:02:21.981Z,108.43
2018-02-10T01:04:49.950Z,111.35
2018-02-10T01:07:18.123Z,104.30
2018-02-10T01:09:45.991Z,105.63
2018-02-10T01:12:13.962Z,106.03
2018-02-10T01:14:41.929Z,105.87
2018-02-10T01:17:10.000Z,104.57
2018-02-10T01:19:37.968Z,106.22
2018-02-10T01:24:40.357Z,102.55
2018-02-10T01:27:08.430Z,106.15
2018-02-10T01:29:36.501Z,104.15
2018-02-10T01:32:04.420Z,105.95
2018-02-10T01:34:32.546Z,107.95
2018-02-10T01:37:00.512Z,108.22
2018-02-10T01:39:28.378Z,101.72
2018-02-10T01:41:56.552Z,105.47
2018-02-10T01:44:24.519Z,107.28
2018-02-10T01:46:52.386Z,107.65
2018-02-10T01:49:20.357Z,109.15
2018-02-10T01:51:48.324Z,110.93
2018-02-10T01:54:16.294Z,109.32
2018-02-10T01:56:44.159Z,106.07
2018-02-10T01:59:12.337Z,108.15
2018-02-10T02:01:40.611Z,105.97
2018-02-10T02:04:08.681Z,106.07
2018-02-10T02:06:36.752Z,110.68
2018-02-10T02:09:04.633Z,108.20
2018-02-10T02:11:32.694Z,104.18
2018-02-10T02:14:00.686Z,106.45
2018-02-10T02:16:28.526Z,120.18
2018-02-10T02:18:56.699Z,115.72
2018-02-10T02:21:24.464Z,127.50
2018-02-10T02:23:52.330Z,126.38
2018-02-10T02:26:20.504Z,136.30
2018-02-10T02:28:48.376Z,137.70
2018-02-10T02:31:16.444Z,138.62
2018-02-10T02:33:44.844Z,126.20
2018-02-10T02:36:12.894Z,120.53
2018-02-10T02:38:40.657Z,111.43
2018-02-10T02:41:08.626Z,108.07
2018-02-10T02:43:36.600Z,109.78
2018-02-10T02:46:04.665Z,103.68
2018-02-10T02:48:33.046Z,103.12
2018-02-10T02:51:00.883Z,107.75
2018-02-10T02:53:28.962Z,103.57
2018-02-10T02:55:56.849Z,103.97
2018-02-10T02:58:24.817Z,104.53
2018-02-10T03:00:52.687Z,106.50
2018-02-10T03:03:20.759Z,105.32
2018-02-10T03:05:48.725Z,109.65
2018-02-10T03:08:16.694Z,109.35
2018-02-10T03:10:44.765Z,111.10
2018-02-10T03:13:12.530Z,107.30
2018-02-10T03:15:40.501Z,103.22
2018-02-10T03:18:08.877Z,104.60
2018-02-10T03:20:36.743Z,103.05
2018-02-10T03:23:04.633Z,108.30
2018-02-10T03:25:33.092Z,106.93
2018-02-10T03:28:00.859Z,117.57
2018-02-10T03:30:28.927Z,113.75
2018-02-10T03:32:56.792Z,113.75
2018-02-10T03:35:25.273Z,108.70
2018-02-10T03:37:53.243Z,107.15
2018-02-10T03:40:21.621Z,118.82
2018-02-10T03:42:49.590Z,113.78
2018-02-10T03:45:17.458Z,108.82
2018-02-10T03:47:45.323Z,106.95
2018-02-10T03:50:13.498Z,108.03
2018-02-10T03:52:41.263Z,107.43
2018-02-10T03:55:09.334Z,109.85
2018-02-10T03:57:37.199Z,108.25
2018-02-10T04:00:04.964Z,110.68
2018-02-10T04:02:32.831Z,109.35
2018-02-10T04:05:00.597Z,106.60
2018-02-10T04:07:28.647Z,106.68
2018-02-10T04:09:56.737Z,109.53
2018-02-10T04:12:25.229Z,109.80
2018-02-10T04:14:53.108Z,110.90
2018-02-10T04:17:20.954Z,109.35
2018-02-10T04:19:49.126Z,109.85
2018-02-10T04:22:17.197Z,107.70
2018-02-10T04:24:45.269Z,106.05
2018-02-10T04:27:13.137Z,105.72
2018-02-10T04:29:41.105Z,105.95
2018-02-10T04:32:09.073Z,104.45
2018-02-10T04:34:36.941Z,110.12
2018-02-10T04:37:04.809Z,109.70
2018-02-10T04:39:33.288Z,104.22
2018-02-10T04:42:01.153Z,105.97
2018-02-10T04:44:29.123Z,107.95
2018-02-10T04:46:57.092Z,106.90
2018-02-10T04:49:25.469Z,106.50
2018-02-10T04:51:53.747Z,108.22
2018-02-10T04:54:21.819Z,108.55
2018-02-10T04:56:49.993Z,107.22
2018-02-10T04:59:17.865Z,105.43
2018-02-10T05:01:45.929Z,103.72
2018-02-10T05:04:14.204Z,105.68
2018-02-10T05:06:42.278Z,106.00
2018-02-10T05:09:10.044Z,107.20
2018-02-10T05:11:38.343Z,105.90
2018-02-10T05:14:06.592Z,105.07
2018-02-10T05:16:34.370Z,106.95
2018-02-10T05:19:02.122Z,108.65
2018-02-10T05:21:29.887Z,105.70
2018-02-10T05:23:57.755Z,104.87
2018-02-10T05:26:26.131Z,112.15
2018-02-10T05:28:54.230Z,110.72
2018-02-10T05:31:22.478Z,113.25
2018-02-10T05:33:50.348Z,113.50
2018-02-10T05:36:18.315Z,105.72
2018-02-10T05:38:46.286Z,105.65
2018-02-10T05:41:14.192Z,109.47
2018-02-10T05:43:42.224Z,105.80
2018-02-10T05:46:10.170Z,104.85
2018-02-10T05:48:38.262Z,108.60
2018-02-10T05:51:06.232Z,109.07
2018-02-10T05:53:34.199Z,128.07
2018-02-10T05:56:02.477Z,123.57
2018-02-10T05:58:30.548Z,108.87
2018-02-10T06:00:58.516Z,109.90
2018-02-10T06:03:26.578Z,103.10
2018-02-10T06:05:54.557Z,105.87
2018-02-10T06:08:22.553Z,108.85
2018-02-10T06:10:50.700Z,109.03
2018-02-10T06:13:18.772Z,120.87
2018-02-10T06:15:47.048Z,121.00
2018-02-10T06:18:14.817Z,109.53
2018-02-10T06:20:42.888Z,113.53
2018-02-10T06:23:11.057Z,111.93
2018-02-10T06:25:39.027Z,110.10
2018-02-10T06:28:07.204Z,114.70
2018-02-10T06:30:35.271Z,109.18
2018-02-10T06:33:03.244Z,107.07
2018-02-10T06:35:31.212Z,118.25
2018-02-10T06:37:58.977Z,103.22
2018-02-10T06:40:26.743Z,113.47
2018-02-10T06:42:54.889Z,111.07
2018-02-10T06:45:22.984Z,102.30
2018-02-10T06:47:50.954Z,100.43
2018-02-10T06:50:19.330Z,103.95
2018-02-10T06:52:47.435Z,100.50
2018-02-10T06:55:15.562Z,98.37
2018-02-10T06:57:43.547Z,105.97
2018-02-10T07:00:11.616Z,104.65
2018-02-10T07:02:39.687Z,104.75
2018-02-10T07:05:07.473Z,101.30
2018-02-10T07:07:35.523Z,106.68
2018-02-10T07:10:03.902Z,105.22
2018-02-10T07:12:31.772Z,106.53
2018-02-10T07:14:59.922Z,105.87
2018-02-10T07:17:28.013Z,101.85
2018-02-10T07:19:55.884Z,100.22
2018-02-10T07:22:23.645Z,102.43
2018-02-10T07:24:51.613Z,104.72
2018-02-10T07:27:19.582Z,102.53
2018-02-10T07:29:47.655Z,100.55
2018-02-10T07:32:15.782Z,98.82
2018-02-10T07:34:43.796Z,98.60
2018-02-10T07:37:11.895Z,98.82
2018-02-10T07:39:39.939Z,100.45
2018-02-10T07:42:08.010Z,103.25
2018-02-10T07:44:35.775Z,93.18
2018-02-10T07:47:04.125Z,96.07
2018-02-10T07:49:32.389Z,95.87
2018-02-10T07:52:00.312Z,95.57
2018-02-10T07:54:28.537Z,93.93
2018-02-10T07:56:56.263Z,95.82
2018-02-10T07:59:24.176Z,93.95
2018-02-10T08:01:52.214Z,92.97
2018-02-10T08:04:20.039Z,94.22
2018-02-10T08:06:48.091Z,101.65
2018-02-10T08:09:15.874Z,101.60
2018-02-10T08:11:44.048Z,94.45
2018-02-10T08:14:11.914Z,93.87
2018-02-10T08:16:40.087Z,102.28
2018-02-10T08:19:08.265Z,106.05
2018-02-10T08:21:36.744Z,99.55
2018-02-10T08:24:04.714Z,101.15
2018-02-10T08:26:33.093Z,92.00
2018-02-10T08:29:00.960Z,106.82
2018-02-10T08:31:28.928Z,99.35
2018-02-10T08:33:56.897Z,94.13
2018-02-10T08:36:25.071Z,112.72
2018-02-10T08:38:53.142Z,96.22
2018-02-10T08:41:21.315Z,94.32
2018-02-10T08:43:49.282Z,97.20
2018-02-10T08:46:17.049Z,94.32
2018-02-10T08:48:45.032Z,95.45
2018-02-10T08:51:13.088Z,92.15
2018-02-10T08:53:41.185Z,91.95
2018-02-10T08:56:09.230Z,94.05
2018-02-10T08:58:37.205Z,90.00
2018-02-10T09:01:05.800Z,97.07
2018-02-10T09:03:33.752Z,92.00
2018-02-10T09:06:04.559Z,92.97
2018-02-10T09:23:05.857Z,95.35
2018-02-10T09:25:33.975Z,93.68
2018-02-10T09:28:02.181Z,93.60
2018-02-10T09:30:30.372Z,93.78
2018-02-10T09:32:58.936Z,94.55
2018-02-10T09:35:27.005Z,93.87
2018-02-10T09:37:54.976Z,92.62
2018-02-10T09:40:22.639Z,92.85
2018-02-10T09:42:50.606Z,100.05
2018-02-10T09:45:18.677Z,94.55
2018-02-10T09:47:46.851Z,95.82
2018-02-10T09:50:14.924Z,91.28
2018-02-10T09:52:43.145Z,92.28
2018-02-10T09:55:11.269Z,93.62
2018-02-10T09:57:39.444Z,92.12
2018-02-10T10:00:07.412Z,92.85
2018-02-10T10:02:35.587Z,94.60
2018-02-10T10:05:03.477Z,95.87
2018-02-10T10:07:32.490Z,104.80
2018-02-10T10:10:00.495Z,97.68
2018-02-10T10:12:28.385Z,104.40
2018-02-10T10:14:56.150Z,107.70
2018-02-10T10:17:24.129Z,98.82
2018-02-10T10:19:51.986Z,110.93
2018-02-10T10:22:20.097Z,99.87
2018-02-10T10:24:48.139Z,97.93
2018-02-10T10:27:16.305Z,109.72
2018-02-10T10:29:44.271Z,100.03
2018-02-10T10:32:12.169Z,97.78
2018-02-10T10:34:40.312Z,118.60
2018-02-10T10:37:08.485Z,94.22
2018-02-10T10:39:36.968Z,101.07
2018-02-10T10:42:04.934Z,108.28
2018-02-10T10:44:32.801Z,106.78
2018-02-10T10:47:00.776Z,106.15
2018-02-10T10:49:29.284Z,102.07
2018-02-10T10:51:58.693Z,97.47
2018-02-10T10:54:26.700Z,106.13
2018-02-10T10:56:54.591Z,102.72
2018-02-10T10:59:22.766Z,97.03
2018-02-10T11:01:52.035Z,112.00
2018-02-10T11:04:20.057Z,95.22
2018-02-10T11:06:48.209Z,100.78
2018-02-10T11:09:16.278Z,104.25
2018-02-10T11:11:44.356Z,94.78
2018-02-10T11:14:12.217Z,101.12
2018-02-10T11:16:40.128Z,104.95
2018-02-10T11:19:08.201Z,92.88
2018-02-10T11:21:36.126Z,105.95
2018-02-10T11:24:04.094Z,102.03
2018-02-10T11:26:32.063Z,97.32
2018-02-10T11:28:59.879Z,109.50
2018-02-10T11:31:27.903Z,97.28
2018-02-10T11:33:56.072Z,92.82
2018-02-10T11:36:24.245Z,109.47
2018-02-10T11:38:52.219Z,97.35
2018-02-10T11:41:20.193Z,100.43
2018-02-10T11:43:48.357Z,104.63
2018-02-10T11:46:16.225Z,99.55
2018-02-10T11:48:44.195Z,103.25
2018-02-10T11:51:12.471Z,108.47
2018-02-10T11:53:41.053Z,104.07
2018-02-10T11:56:09.124Z,106.35
2018-02-10T11:58:37.007Z,104.47
2018-02-10T12:01:04.939Z,96.30
2018-02-10T12:03:32.935Z,99.22
2018-02-10T12:06:01.000Z,107.65
2018-02-10T12:08:28.867Z,104.70
2018-02-10T12:10:56.983Z,106.80
2018-02-10T12:13:25.317Z,103.07
2018-02-10T12:15:53.388Z,100.00
2018-02-10T12:18:21.152Z,103.20
2018-02-10T12:20:49.146Z,114.57
2018-02-10T12:23:17.065Z,120.57
2018-02-10T12:25:45.264Z,108.07
2018-02-10T12:28:13.646Z,109.85
2018-02-10T12:30:41.509Z,105.57
2018-02-10T12:33:09.478Z,111.88
2018-02-10T12:35:37.448Z,120.62
2018-02-10T12:38:05.213Z,130.90
2018-02-10T12:40:33.755Z,124.30
2018-02-10T12:43:01.665Z,134.90
2018-02-10T12:45:29.531Z,117.80
2018-02-10T12:48:04.762Z,114.37
2018-02-10T12:50:33.145Z,114.53
2018-02-10T12:53:01.730Z,115.97
2018-02-10T12:55:29.980Z,107.60
2018-02-10T12:57:58.077Z,101.82
2018-02-10T13:00:26.048Z,101.78
2018-02-10T13:02:53.939Z,106.75
2018-02-10T13:05:22.088Z,120.28
2018-02-10T13:07:50.055Z,121.72
2018-02-10T13:10:18.127Z,132.45
2018-02-10T13:12:46.505Z,133.43
2018-02-10T13:15:14.577Z,136.70
2018-02-10T13:17:42.341Z,123.43
2018-02-10T13:20:10.208Z,120.30
2018-02-10T13:22:38.484Z,112.95
2018-02-10T13:25:06.453Z,113.07
2018-02-10T13:27:34.627Z,107.60
2018-02-10T13:30:03.009Z,95.90
2018-02-10T13:32:31.182Z,111.20
2018-02-10T13:34:59.249Z,114.53
2018-02-10T13:37:27.400Z,123.87
2018-02-10T13:39:55.495Z,137.77
2018-02-10T13:42:23.466Z,116.93
2018-02-10T13:44:51.521Z,125.30
2018-02-10T13:47:19.300Z,122.15
2018-02-10T13:49:47.473Z,113.72
2018-02-10T13:52:15.237Z,121.03
2018-02-10T13:54:43.309Z,120.37
2018-02-10T13:57:11.380Z,108.15
2018-02-10T13:59:39.453Z,106.95
2018-02-10T14:02:07.626Z,112.32
2018-02-10T14:04:35.596Z,108.35
2018-02-10T14:07:03.769Z,106.50
2018-02-10T14:09:31.733Z,107.82
2018-02-10T14:11:59.908Z,106.00
2018-02-10T14:14:27.983Z,105.57
2018-02-10T14:16:56.058Z,104.35
2018-02-10T14:19:24.020Z,108.07
2018-02-10T14:21:51.959Z,111.47
2018-02-10T14:24:20.062Z,113.60
2018-02-10T14:26:48.441Z,107.75
2018-02-10T14:29:16.408Z,110.45
2018-02-10T14:31:45.565Z,105.53
2018-02-10T14:34:13.472Z,114.88
2018-02-10T14:36:41.625Z,107.15
2018-02-10T14:39:09.621Z,98.68
2018-02-10T14:41:37.656Z,106.07
2018-02-10T14:44:05.553Z,104.78
2018-02-10T14:46:33.391Z,98.75
2018-02-10T14:49:01.075Z,111.30
2018-02-10T14:51:28.804Z,108.40
2018-02-10T14:53:56.590Z,105.45
2018-02-10T14:56:24.375Z,126.25
2018-02-10T14:58:52.076Z,112.65
2018-02-10T15:01:19.929Z,101.57
2018-02-10T15:03:48.383Z,120.93
2018-02-10T15:06:16.278Z,113.68
2018-02-10T15:08:44.320Z,108.28
2018-02-10T15:11:12.290Z,116.85
2018-02-10T15:13:40.258Z,108.93
2018-02-10T15:16:10.422Z,121.80
2018-02-10T15:18:38.686Z,128.12
2018-02-10T15:21:06.519Z,110.85
2018-02-10T15:23:34.388Z,125.68
2018-02-10T15:26:02.677Z,117.28
2018-02-10T15:28:30.530Z,111.35
2018-02-10T15:31:04.437Z,117.82
2018-02-10T15:33:49.302Z,114.65
2018-02-10T15:36:17.713Z,116.10
2018-02-10T15:38:46.468Z,114.70
2018-02-10T15:41:14.563Z,111.47
2018-02-10T15:43:43.124Z,109.60
2018-02-10T15:46:11.104Z,116.90
2018-02-10T15:48:39.067Z,116.37
2018-02-10T15:51:07.052Z,106.53
2018-02-10T15:53:34.827Z,117.68
2018-02-10T15:56:02.970Z,107.35
2018-02-10T15:58:31.045Z,108.40
2018-02-10T16:00:59.317Z,123.05
2018-02-10T16:03:27.923Z,123.25
2018-02-10T16:05:55.975Z,125.93
2018-02-10T16:08:23.839Z,135.75
2018-02-10T16:10:51.775Z,130.27
2018-02-10T16:13:19.674Z,121.95
2018-02-10T16:15:47.743Z,134.43
2018-02-10T16:18:15.888Z,113.25
2018-02-10T16:20:44.298Z,115.32
2018-02-10T16:23:12.166Z,112.07
2018-02-10T16:25:40.318Z,101.93
2018-02-10T16:28:08.409Z,116.75
2018-02-10T16:30:36.483Z,112.18
2018-02-10T16:33:04.455Z,110.85
2018-02-10T16:35:32.522Z,114.30
2018-02-10T16:38:00.510Z,108.60
2018-02-10T16:40:28.666Z,108.00
2018-02-10T16:42:56.634Z,121.85
2018-02-10T16:45:24.806Z,113.88
2018-02-10T16:47:52.672Z,108.35
2018-02-10T16:50:20.623Z,104.15
2018-02-10T16:52:48.712Z,106.25
2018-02-10T16:55:16.681Z,109.53
2018-02-10T16:57:44.730Z,106.47
2018-02-10T17:00:12.724Z,100.32
2018-02-10T17:02:41.073Z,102.72
2018-02-10T17:05:09.173Z,99.05
2018-02-10T17:07:37.164Z,109.12
2018-02-10T17:10:04.907Z,113.32
2018-02-10T17:12:32.852Z,109.87
2018-02-10T17:15:00.639Z,102.50
2018-02-10T17:17:28.509Z,99.70
2018-02-10T17:19:56.578Z,103.95
2018-02-10T17:22:24.444Z,106.50
2018-02-10T17:24:52.388Z,113.22
2018-02-10T17:27:20.280Z,113.37
2018-02-10T17:29:48.353Z,147.57
2018-02-10T17:32:16.653Z,137.77
2018-02-10T17:34:44.712Z,149.10
2018-02-10T17:37:12.771Z,116.78
2018-02-10T17:39:40.842Z,97.78
2018-02-10T17:42:09.015Z,97.82
2018-02-10T17:44:36.884Z,106.87
2018-02-10T17:47:04.879Z,106.72
2018-02-10T17:49:33.233Z,111.40
2018-02-10T17:52:01.330Z,116.32
2018-02-10T17:54:29.172Z,114.85
2018-02-10T17:56:57.033Z,121.75
2018-02-10T17:59:25.311Z,130.70
2018-02-10T18:01:53.586Z,129.98
2018-02-10T18:04:21.879Z,115.22
2018-02-10T18:06:50.061Z,119.13
2018-02-10T18:09:18.109Z,118.68
2018-02-10T18:11:45.974Z,107.07
2018-02-10T18:14:14.074Z,98.95
2018-02-10T18:16:42.117Z,118.62
2018-02-10T18:19:10.190Z,139.43
2018-02-10T18:21:37.952Z,134.57
2018-02-10T18:24:06.026Z,137.95
2018-02-10T18:26:34.203Z,116.75
2018-02-10T18:29:02.269Z,125.50
2018-02-10T18:31:30.342Z,122.25
2018-02-10T18:33:58.640Z,118.80
2018-02-10T18:36:26.508Z,124.87
2018-02-10T18:38:54.439Z,120.35
2018-02-10T18:41:22.365Z,130.87
2018-02-10T18:43:50.165Z,125.35
2018-02-10T18:46:18.461Z,129.85
2018-02-10T18:48:46.433Z,139.20
2018-02-10T18:51:14.684Z,127.22
2018-02-10T18:53:42.676Z,132.37
2018-02-10T18:56:10.849Z,117.37
2018-02-10T18:58:38.820Z,105.90
2018-02-10T19:01:06.687Z,119.18
2018-02-10T19:03:34.464Z,116.00
2018-02-10T19:06:02.418Z,106.43
2018-02-10T19:08:30.386Z,107.80
2018-02-10T19:10:58.356Z,133.57
2018-02-10T19:13:26.465Z,127.97
2018-02-10T19:15:54.676Z,96.68
2018-02-10T19:18:22.677Z,111.30
2018-02-10T19:20:50.744Z,104.63
2018-02-10T19:23:18.816Z,125.30
2018-02-10T19:25:46.889Z,132.10
2018-02-10T19:28:14.859Z,111.85
2018-02-10T19:30:42.828Z,128.48
2018-02-10T19:33:10.897Z,107.30
2018-02-10T19:35:39.174Z,107.50
2018-02-10T19:38:07.143Z,108.75
2018-02-10T19:40:35.215Z,99.85
2018-02-10T19:43:03.488Z,103.35
2018-02-10T19:45:31.404Z,98.90
2018-02-10T19:47:59.528Z,94.40
2018-02-10T19:50:27.499Z,99.07
2018-02-10T19:52:55.652Z,105.32
2018-02-10T19:55:23.744Z,98.90
2018-02-10T19:57:52.122Z,96.12
2018-02-10T20:00:20.400Z,105.55
2018-02-10T20:02:48.470Z,121.10
2018-02-10T20:05:16.540Z,147.25
2018-02-10T20:07:44.511Z,143.82
2018-02-10T20:10:12.479Z,157.75
2018-02-10T20:12:40.756Z,136.85
2018-02-10T20:15:09.032Z,129.20
2018-02-10T20:17:36.799Z,138.40
2018-02-10T20:20:05.276Z,125.70
2018-02-10T20:22:33.275Z,104.32
2018-02-10T20:25:01.114Z,112.45
2018-02-10T20:27:29.289Z,109.80
2018-02-10T20:29:57.134Z,124.70
2018-02-10T20:32:24.948Z,123.20
2018-02-10T20:34:52.725Z,115.75
2018-02-10T20:37:21.055Z,109.32
2018-02-10T20:39:48.824Z,136.95
2018-02-10T20:42:16.731Z,119.03
2018-02-10T20:44:44.632Z,123.72
2018-02-10T20:47:12.484Z,133.02
2018-02-10T20:49:40.594Z,126.22
2018-02-10T20:52:08.671Z,124.03
2018-02-10T20:54:36.944Z,102.80
2018-02-10T20:57:04.813Z,106.40
2018-02-10T20:59:32.997Z,110.93
2018-02-10T21:02:01.481Z,105.32
2018-02-10T21:04:29.521Z,106.63
2018-02-10T21:06:57.608Z,113.10
2018-02-10T21:09:25.581Z,101.75
2018-02-10T21:11:53.650Z,102.97
2018-02-10T21:14:21.826Z,161.37
2018-02-10T21:16:49.798Z,102.00
2018-02-10T21:19:17.735Z,98.35
2018-02-10T21:21:45.832Z,98.70
2018-02-10T21:24:13.802Z,102.15
2018-02-10T21:26:41.982Z,99.65
2018-02-10T21:29:09.944Z,103.72
2018-02-10T21:31:38.016Z,111.03
2018-02-10T21:34:05.798Z,116.07
2018-02-10T21:36:33.752Z,122.13
2018-02-10T21:39:01.823Z,116.25
2018-02-10T21:41:29.891Z,107.35
2018-02-10T21:43:57.942Z,100.55
2018-02-10T21:46:26.116Z,96.40
2018-02-10T21:48:54.413Z,91.78
2018-02-10T21:51:22.281Z,97.70
2018-02-10T21:53:50.463Z,106.57
2018-02-10T21:56:18.346Z,108.45
2018-02-10T21:58:46.391Z,104.90
2018-02-10T22:01:14.360Z,102.60
2018-02-10T22:03:42.641Z,100.25
2018-02-10T22:06:10.606Z,97.05
2018-02-10T22:08:38.476Z,105.60
2018-02-10T22:11:06.338Z,101.43
2018-02-10T22:13:34.212Z,98.72
2018-02-10T22:16:02.277Z,97.80
2018-02-10T22:18:30.143Z,106.00
2018-02-10T22:20:58.605Z,101.95
2018-02-10T22:23:26.390Z,98.20
2018-02-10T22:25:54.358Z,97.85
2018-02-10T22:28:22.330Z,95.35
2018-02-10T22:30:50.399Z,100.82
2018-02-10T22:33:18.266Z,98.82
2018-02-10T22:35:46.238Z,97.20
2018-02-10T22:38:14.104Z,99.07
2018-02-10T22:40:42.197Z,111.43
2018-02-10T22:43:10.065Z,106.82
2018-02-10T22:45:38.316Z,114.85
2018-02-10T22:48:06.386Z,113.05
2018-02-10T22:50:34.150Z,103.93
2018-02-10T22:55:36.540Z,110.97
2018-02-10T22:58:04.407Z,123.95
2018-02-10T23:00:32.786Z,150.90
2018-02-10T23:03:00.959Z,140.80
2018-02-10T23:05:28.926Z,110.32
2018-02-10T23:07:56.797Z,120.18
2018-02-10T23:10:24.763Z,142.20
2018-02-10T23:12:52.938Z,135.20
2018-02-10T23:15:20.829Z,106.87
2018-02-10T23:17:48.882Z,104.30
2018-02-10T23:20:17.151Z,100.93
2018-02-10T23:22:45.223Z,101.00
2018-02-10T23:25:13.433Z,99.60
2018-02-10T23:27:41.365Z,104.60
2018-02-10T23:30:09.334Z,106.40
2018-02-10T23:32:37.405Z,115.88
2018-02-10T23:35:05.477Z,112.72
2018-02-10T23:37:33.962Z,108.47
2018-02-10T23:40:02.234Z,108.12
2018-02-10T23:42:30.205Z,113.90
2018-02-10T23:44:58.171Z,106.18
2018-02-10T23:47:25.936Z,116.28
2018-02-10T23:49:53.803Z,115.40
2018-02-10T23:52:21.874Z,105.32
2018-02-10T23:54:50.268Z,117.10
2018-02-10T23:57:18.529Z,130.52
2018-02-10T23:59:46.601Z,118.82
